Greeley West High School, Colorado
Current Conditions -  °F | °C
As of 12:15 AM on Friday 31 Oct 2014 (Local Time) from KGXY Reporting Station
Clear Clear  
Wind Chill: 29°   Ceiling: Unl
Heat Index: 36°   Visibility: 10mi
Dew Point: 21°   Wind: 8mph
Humidity: 56%   Direction: 30°NNE
Pressure: 30.43"   Gusts: NA
Location:  40.41412°N, 104.7064°W
Report Text: KGXY 310615Z AUTO 03007KT 10SM CLR 02/M06 A3043 RMK AO1
Loading
Personal Weather Stations






























Interactive Weather Map New forecast layout! Learn more

10-Day Weather Forecast

Advertisements
Track Severe Weather on mobile